sensor_id;sensor_type;location;lat;lon;timestamp;P1;durP1;ratioP1;P2;durP2;ratioP2
84357;SDS011;74548;47.712;9.272;2024-03-23T00:55:11;2.17;;;1.33;;
84357;SDS011;74548;47.712;9.272;2024-03-23T00:57:37;2.00;;;1.00;;
84357;SDS011;74548;47.712;9.272;2024-03-23T01:00:02;1.48;;;1.00;;
84357;SDS011;74548;47.712;9.272;2024-03-23T01:02:31;1.85;;;1.15;;
84357;SDS011;74548;47.712;9.272;2024-03-23T01:04:56;1.80;;;1.27;;
84357;SDS011;74548;47.712;9.272;2024-03-23T01:07:21;2.20;;;1.10;;
84357;SDS011;74548;47.712;9.272;2024-03-23T01:09:47;1.80;;;1.20;;
84357;SDS011;74548;47.712;9.272;2024-03-23T01:12:13;1.33;;;1.00;;
84357;SDS011;74548;47.712;9.272;2024-03-23T01:14:38;1.88;;;1.15;;
84357;SDS011;74548;47.712;9.272;2024-03-23T01:17:03;2.27;;;1.20;;
84357;SDS011;74548;47.712;9.272;2024-03-23T01:19:29;2.13;;;1.20;;
84357;SDS011;74548;47.712;9.272;2024-03-23T01:21:54;2.63;;;1.13;;
84357;SDS011;74548;47.712;9.272;2024-03-23T01:24:19;1.93;;;1.10;;
84357;SDS011;74548;47.712;9.272;2024-03-23T01:26:44;2.33;;;1.20;;
84357;SDS011;74548;47.712;9.272;2024-03-23T01:29:10;2.00;;;1.30;;
84357;SDS011;74548;47.712;9.272;2024-03-23T01:31:36;2.00;;;1.30;;
84357;SDS011;74548;47.712;9.272;2024-03-23T01:36:14;1.83;;;1.08;;
84357;SDS011;74548;47.712;9.272;2024-03-23T01:38:39;1.38;;;1.10;;
84357;SDS011;74548;47.712;9.272;2024-03-23T01:41:05;1.10;;;0.90;;
84357;SDS011;74548;47.712;9.272;2024-03-23T01:43:30;2.63;;;1.33;;
84357;SDS011;74548;47.712;9.272;2024-03-23T01:45:56;1.50;;;0.88;;
84357;SDS011;74548;47.712;9.272;2024-03-23T01:48:21;1.88;;;1.35;;
84357;SDS011;74548;47.712;9.272;2024-03-23T01:50:46;2.13;;;1.20;;
84357;SDS011;74548;47.712;9.272;2024-03-23T01:53:13;2.35;;;1.20;;
84357;SDS011;74548;47.712;9.272;2024-03-23T01:55:42;1.90;;;1.17;;
84357;SDS011;74548;47.712;9.272;2024-03-23T01:58:07;2.00;;;1.55;;
84357;SDS011;74548;47.712;9.272;2024-03-23T02:00:33;2.27;;;1.20;;
84357;SDS011;74548;47.712;9.272;2024-03-23T02:02:58;2.13;;;1.30;;
84357;SDS011;74548;47.712;9.272;2024-03-23T02:05:23;2.13;;;1.30;;
84357;SDS011;74548;47.712;9.272;2024-03-23T02:07:49;3.58;;;1.50;;
84357;SDS011;74548;47.712;9.272;2024-03-23T02:10:15;1.80;;;1.17;;
84357;SDS011;74548;47.712;9.272;2024-03-23T02:12:41;1.63;;;1.20;;
84357;SDS011;74548;47.712;9.272;2024-03-23T02:15:06;2.67;;;1.40;;
84357;SDS011;74548;47.712;9.272;2024-03-23T02:17:33;2.10;;;1.40;;
84357;SDS011;74548;47.712;9.272;2024-03-23T02:20:00;1.50;;;1.00;;
84357;SDS011;74548;47.712;9.272;2024-03-23T02:22:35;1.70;;;1.25;;
84357;SDS011;74548;47.712;9.272;2024-03-23T02:25:02;1.50;;;1.10;;
84357;SDS011;74548;47.712;9.272;2024-03-23T02:27:29;2.83;;;1.48;;
84357;SDS011;74548;47.712;9.272;2024-03-23T02:29:54;1.80;;;1.40;;
84357;SDS011;74548;47.712;9.272;2024-03-23T02:32:19;3.50;;;1.70;;
84357;SDS011;74548;47.712;9.272;2024-03-23T02:34:45;2.00;;;1.23;;
84357;SDS011;74548;47.712;9.272;2024-03-23T02:37:11;2.33;;;1.33;;
84357;SDS011;74548;47.712;9.272;2024-03-23T02:39:36;1.88;;;1.17;;
84357;SDS011;74548;47.712;9.272;2024-03-23T02:42:02;2.20;;;1.30;;
84357;SDS011;74548;47.712;9.272;2024-03-23T02:44:27;2.35;;;1.20;;
84357;SDS011;74548;47.712;9.272;2024-03-23T02:46:53;1.92;;;1.20;;
84357;SDS011;74548;47.712;9.272;2024-03-23T02:49:18;2.00;;;1.30;;
84357;SDS011;74548;47.712;9.272;2024-03-23T02:51:43;2.20;;;1.33;;
84357;SDS011;74548;47.712;9.272;2024-03-23T02:54:10;1.45;;;1.15;;
84357;SDS011;74548;47.712;9.272;2024-03-23T02:56:35;1.58;;;1.10;;
84357;SDS011;74548;47.712;9.272;2024-03-23T02:59:01;1.23;;;1.10;;
84357;SDS011;74548;47.712;9.272;2024-03-23T03:01:26;1.98;;;1.30;;
84357;SDS011;74548;47.712;9.272;2024-03-23T03:06:25;1.55;;;1.08;;
84357;SDS011;74548;47.712;9.272;2024-03-23T03:08:50;1.85;;;1.30;;
84357;SDS011;74548;47.712;9.272;2024-03-23T03:11:16;1.97;;;1.20;;
84357;SDS011;74548;47.712;9.272;2024-03-23T03:13:41;1.83;;;1.00;;
84357;SDS011;74548;47.712;9.272;2024-03-23T03:16:10;1.53;;;1.00;;
84357;SDS011;74548;47.712;9.272;2024-03-23T03:18:36;2.00;;;1.50;;
84357;SDS011;74548;47.712;9.272;2024-03-23T03:21:01;2.97;;;1.30;;
84357;SDS011;74548;47.712;9.272;2024-03-23T03:23:27;2.00;;;1.17;;
84357;SDS011;74548;47.712;9.272;2024-03-23T03:25:52;1.90;;;1.30;;
84357;SDS011;74548;47.712;9.272;2024-03-23T03:28:18;2.88;;;1.10;;
84357;SDS011;74548;47.712;9.272;2024-03-23T03:30:43;1.77;;;1.25;;
84357;SDS011;74548;47.712;9.272;2024-03-23T03:33:10;2.83;;;1.35;;
84357;SDS011;74548;47.712;9.272;2024-03-23T03:35:35;2.07;;;1.43;;
84357;SDS011;74548;47.712;9.272;2024-03-23T03:38:00;2.65;;;1.35;;
84357;SDS011;74548;47.712;9.272;2024-03-23T03:40:26;1.70;;;1.03;;
84357;SDS011;74548;47.712;9.272;2024-03-23T03:42:51;2.47;;;1.30;;
84357;SDS011;74548;47.712;9.272;2024-03-23T03:45:16;2.53;;;1.42;;
84357;SDS011;74548;47.712;9.272;2024-03-23T03:47:42;2.03;;;1.37;;
84357;SDS011;74548;47.712;9.272;2024-03-23T03:50:07;2.00;;;1.20;;
84357;SDS011;74548;47.712;9.272;2024-03-23T03:52:32;3.58;;;1.60;;
84357;SDS011;74548;47.712;9.272;2024-03-23T03:55:01;1.57;;;1.23;;
84357;SDS011;74548;47.712;9.272;2024-03-23T03:57:27;2.08;;;1.50;;
84357;SDS011;74548;47.712;9.272;2024-03-23T03:59:53;1.65;;;1.20;;
84357;SDS011;74548;47.712;9.272;2024-03-23T04:02:18;2.20;;;1.30;;
84357;SDS011;74548;47.712;9.272;2024-03-23T04:04:43;2.77;;;0.93;;
84357;SDS011;74548;47.712;9.272;2024-03-23T04:07:09;1.58;;;1.20;;
84357;SDS011;74548;47.712;9.272;2024-03-23T04:12:02;2.00;;;1.30;;
84357;SDS011;74548;47.712;9.272;2024-03-23T04:14:27;2.65;;;1.48;;
84357;SDS011;74548;47.712;9.272;2024-03-23T04:16:53;2.65;;;1.30;;
84357;SDS011;74548;47.712;9.272;2024-03-23T04:19:18;2.43;;;1.47;;
84357;SDS011;74548;47.712;9.272;2024-03-23T04:21:44;1.98;;;1.20;;
84357;SDS011;74548;47.712;9.272;2024-03-23T04:26:43;2.05;;;1.30;;
84357;SDS011;74548;47.712;9.272;2024-03-23T04:29:08;1.98;;;1.15;;
84357;SDS011;74548;47.712;9.272;2024-03-23T04:31:34;2.08;;;1.35;;
84357;SDS011;74548;47.712;9.272;2024-03-23T04:34:00;2.88;;;1.60;;
84357;SDS011;74548;47.712;9.272;2024-03-23T04:36:26;2.00;;;1.40;;
84357;SDS011;74548;47.712;9.272;2024-03-23T04:38:51;2.17;;;1.60;;
84357;SDS011;74548;47.712;9.272;2024-03-23T04:41:17;1.92;;;1.20;;
84357;SDS011;74548;47.712;9.272;2024-03-23T04:43:43;2.13;;;1.23;;
84357;SDS011;74548;47.712;9.272;2024-03-23T04:46:08;2.33;;;1.25;;
84357;SDS011;74548;47.712;9.272;2024-03-23T04:48:34;3.85;;;1.38;;
84357;SDS011;74548;47.712;9.272;2024-03-23T04:50:59;2.15;;;1.30;;
84357;SDS011;74548;47.712;9.272;2024-03-23T04:53:24;1.57;;;1.10;;
84357;SDS011;74548;47.712;9.272;2024-03-23T04:55:53;1.40;;;1.15;;
84357;SDS011;74548;47.712;9.272;2024-03-23T04:58:20;2.13;;;1.25;;
84357;SDS011;74548;47.712;9.272;2024-03-23T05:00:45;2.80;;;1.23;;
84357;SDS011;74548;47.712;9.272;2024-03-23T05:03:10;2.50;;;1.50;;
84357;SDS011;74548;47.712;9.272;2024-03-23T05:05:36;2.23;;;1.37;;
84357;SDS011;74548;47.712;9.272;2024-03-23T05:08:01;3.47;;;1.47;;
84357;SDS011;74548;47.712;9.272;2024-03-23T05:10:26;2.30;;;1.30;;
84357;SDS011;74548;47.712;9.272;2024-03-23T05:12:52;2.58;;;1.15;;
84357;SDS011;74548;47.712;9.272;2024-03-23T05:15:17;2.88;;;1.35;;
84357;SDS011;74548;47.712;9.272;2024-03-23T05:17:43;2.17;;;1.33;;
84357;SDS011;74548;47.712;9.272;2024-03-23T05:20:08;4.30;;;1.43;;
84357;SDS011;74548;47.712;9.272;2024-03-23T05:22:35;1.45;;;1.05;;
84357;SDS011;74548;47.712;9.272;2024-03-23T05:25:01;1.70;;;1.20;;
84357;SDS011;74548;47.712;9.272;2024-03-23T05:27:29;1.73;;;1.10;;
84357;SDS011;74548;47.712;9.272;2024-03-23T05:29:56;2.22;;;1.50;;
84357;SDS011;74548;47.712;9.272;2024-03-23T05:32:22;2.25;;;1.08;;
84357;SDS011;74548;47.712;9.272;2024-03-23T05:34:47;2.20;;;1.10;;
84357;SDS011;74548;47.712;9.272;2024-03-23T05:37:20;2.40;;;1.08;;
84357;SDS011;74548;47.712;9.272;2024-03-23T05:39:46;3.67;;;1.40;;
84357;SDS011;74548;47.712;9.272;2024-03-23T05:42:13;1.88;;;1.27;;
84357;SDS011;74548;47.712;9.272;2024-03-23T05:44:39;3.78;;;2.50;;
84357;SDS011;74548;47.712;9.272;2024-03-23T05:47:05;1.90;;;1.20;;
84357;SDS011;74548;47.712;9.272;2024-03-23T05:49:30;2.28;;;1.23;;
84357;SDS011;74548;47.712;9.272;2024-03-23T05:51:55;1.73;;;1.17;;
84357;SDS011;74548;47.712;9.272;2024-03-23T05:56:54;2.08;;;1.20;;
84357;SDS011;74548;47.712;9.272;2024-03-23T05:59:19;2.58;;;1.30;;
84357;SDS011;74548;47.712;9.272;2024-03-23T06:01:46;1.77;;;1.30;;
84357;SDS011;74548;47.712;9.272;2024-03-23T06:04:11;3.30;;;1.80;;
84357;SDS011;74548;47.712;9.272;2024-03-23T06:06:39;5.85;;;2.00;;
84357;SDS011;74548;47.712;9.272;2024-03-23T06:09:04;2.83;;;2.10;;
84357;SDS011;74548;47.712;9.272;2024-03-23T06:11:30;4.28;;;2.08;;
84357;SDS011;74548;47.712;9.272;2024-03-23T06:13:56;3.67;;;2.30;;
84357;SDS011;74548;47.712;9.272;2024-03-23T06:16:21;3.13;;;2.13;;
84357;SDS011;74548;47.712;9.272;2024-03-23T06:18:52;2.70;;;1.90;;
84357;SDS011;74548;47.712;9.272;2024-03-23T06:21:18;2.47;;;1.98;;
84357;SDS011;74548;47.712;9.272;2024-03-23T06:23:44;2.75;;;2.05;;
84357;SDS011;74548;47.712;9.272;2024-03-23T06:26:16;3.67;;;1.85;;
84357;SDS011;74548;47.712;9.272;2024-03-23T06:28:42;3.33;;;1.80;;
84357;SDS011;74548;47.712;9.272;2024-03-23T06:33:29;2.40;;;1.95;;
84357;SDS011;74548;47.712;9.272;2024-03-23T06:35:54;3.33;;;1.87;;
84357;SDS011;74548;47.712;9.272;2024-03-23T06:38:19;3.42;;;1.70;;
84357;SDS011;74548;47.712;9.272;2024-03-23T06:40:45;3.03;;;1.90;;
84357;SDS011;74548;47.712;9.272;2024-03-23T06:43:13;2.72;;;1.77;;
84357;SDS011;74548;47.712;9.272;2024-03-23T06:45:38;2.92;;;1.75;;
84357;SDS011;74548;47.712;9.272;2024-03-23T06:48:04;3.08;;;1.52;;
84357;SDS011;74548;47.712;9.272;2024-03-23T06:50:32;2.85;;;1.73;;
84357;SDS011;74548;47.712;9.272;2024-03-23T06:52:58;3.05;;;1.55;;
84357;SDS011;74548;47.712;9.272;2024-03-23T06:55:24;2.22;;;1.52;;
84357;SDS011;74548;47.712;9.272;2024-03-23T06:57:51;2.00;;;1.58;;
84357;SDS011;74548;47.712;9.272;2024-03-23T07:00:17;3.60;;;1.50;;
84357;SDS011;74548;47.712;9.272;2024-03-23T07:02:42;2.20;;;1.42;;
84357;SDS011;74548;47.712;9.272;2024-03-23T07:05:09;2.65;;;1.77;;
84357;SDS011;74548;47.712;9.272;2024-03-23T07:09:59;3.17;;;1.70;;
84357;SDS011;74548;47.712;9.272;2024-03-23T07:12:24;2.60;;;1.50;;
84357;SDS011;74548;47.712;9.272;2024-03-23T07:17:05;2.25;;;1.60;;
84357;SDS011;74548;47.712;9.272;2024-03-23T07:19:30;4.03;;;1.77;;
84357;SDS011;74548;47.712;9.272;2024-03-23T07:21:56;3.87;;;1.50;;
84357;SDS011;74548;47.712;9.272;2024-03-23T07:24:21;2.60;;;1.50;;
84357;SDS011;74548;47.712;9.272;2024-03-23T07:26:46;3.00;;;1.53;;
84357;SDS011;74548;47.712;9.272;2024-03-23T07:29:12;3.38;;;1.58;;
84357;SDS011;74548;47.712;9.272;2024-03-23T07:31:37;6.28;;;1.80;;
84357;SDS011;74548;47.712;9.272;2024-03-23T07:34:03;1.52;;;1.08;;
84357;SDS011;74548;47.712;9.272;2024-03-23T07:36:29;2.40;;;1.27;;
84357;SDS011;74548;47.712;9.272;2024-03-23T07:38:54;2.30;;;1.60;;
84357;SDS011;74548;47.712;9.272;2024-03-23T07:41:19;2.80;;;1.50;;
84357;SDS011;74548;47.712;9.272;2024-03-23T07:43:46;3.08;;;1.70;;
84357;SDS011;74548;47.712;9.272;2024-03-23T07:46:12;1.98;;;1.35;;
84357;SDS011;74548;47.712;9.272;2024-03-23T07:48:39;3.58;;;1.60;;
84357;SDS011;74548;47.712;9.272;2024-03-23T07:53:34;4.32;;;1.40;;
84357;SDS011;74548;47.712;9.272;2024-03-23T07:58:14;2.30;;;1.98;;
84357;SDS011;74548;47.712;9.272;2024-03-23T08:00:39;2.10;;;1.30;;
84357;SDS011;74548;47.712;9.272;2024-03-23T08:03:04;2.93;;;1.57;;
84357;SDS011;74548;47.712;9.272;2024-03-23T08:08:11;2.30;;;1.70;;
84357;SDS011;74548;47.712;9.272;2024-03-23T08:10:37;2.13;;;1.55;;
84357;SDS011;74548;47.712;9.272;2024-03-23T08:13:11;2.80;;;1.50;;
84357;SDS011;74548;47.712;9.272;2024-03-23T08:15:37;2.10;;;1.40;;
84357;SDS011;74548;47.712;9.272;2024-03-23T08:18:02;2.42;;;1.60;;
84357;SDS011;74548;47.712;9.272;2024-03-23T08:20:28;2.60;;;1.58;;
84357;SDS011;74548;47.712;9.272;2024-03-23T08:22:53;2.28;;;1.58;;
84357;SDS011;74548;47.712;9.272;2024-03-23T08:25:18;2.30;;;1.60;;
84357;SDS011;74548;47.712;9.272;2024-03-23T08:27:44;2.43;;;1.23;;
84357;SDS011;74548;47.712;9.272;2024-03-23T08:30:10;2.20;;;1.35;;
84357;SDS011;74548;47.712;9.272;2024-03-23T08:35:03;1.60;;;1.25;;
84357;SDS011;74548;47.712;9.272;2024-03-23T08:37:29;1.33;;;0.85;;
84357;SDS011;74548;47.712;9.272;2024-03-23T08:39:54;3.00;;;1.73;;
84357;SDS011;74548;47.712;9.272;2024-03-23T08:42:20;2.20;;;0.90;;
84357;SDS011;74548;47.712;9.272;2024-03-23T08:44:46;2.05;;;0.93;;
84357;SDS011;74548;47.712;9.272;2024-03-23T08:47:14;1.48;;;0.93;;
84357;SDS011;74548;47.712;9.272;2024-03-23T08:49:40;2.92;;;0.90;;
84357;SDS011;74548;47.712;9.272;2024-03-23T08:52:05;1.35;;;0.88;;
84357;SDS011;74548;47.712;9.272;2024-03-23T08:54:30;1.92;;;0.70;;
84357;SDS011;74548;47.712;9.272;2024-03-23T08:56:56;1.15;;;0.90;;
84357;SDS011;74548;47.712;9.272;2024-03-23T08:59:21;1.67;;;0.95;;
84357;SDS011;74548;47.712;9.272;2024-03-23T09:01:48;1.55;;;0.85;;
84357;SDS011;74548;47.712;9.272;2024-03-23T09:04:14;1.55;;;0.80;;
84357;SDS011;74548;47.712;9.272;2024-03-23T09:08:52;0.85;;;0.60;;
84357;SDS011;74548;47.712;9.272;2024-03-23T09:11:18;1.35;;;0.75;;
84357;SDS011;74548;47.712;9.272;2024-03-23T09:13:43;1.13;;;0.67;;
84357;SDS011;74548;47.712;9.272;2024-03-23T09:16:09;0.77;;;0.50;;
84357;SDS011;74548;47.712;9.272;2024-03-23T09:18:35;1.13;;;0.60;;
84357;SDS011;74548;47.712;9.272;2024-03-23T09:21:02;2.55;;;0.73;;
84357;SDS011;74548;47.712;9.272;2024-03-23T09:23:29;0.93;;;0.47;;
84357;SDS011;74548;47.712;9.272;2024-03-23T09:25:54;2.33;;;0.70;;
84357;SDS011;74548;47.712;9.272;2024-03-23T09:28:20;0.98;;;0.52;;
84357;SDS011;74548;47.712;9.272;2024-03-23T09:30:45;0.95;;;0.60;;
84357;SDS011;74548;47.712;9.272;2024-03-23T09:33:12;1.00;;;0.52;;
84357;SDS011;74548;47.712;9.272;2024-03-23T09:35:38;0.70;;;0.50;;
84357;SDS011;74548;47.712;9.272;2024-03-23T09:38:04;1.42;;;0.65;;
84357;SDS011;74548;47.712;9.272;2024-03-23T09:40:30;0.88;;;0.40;;
84357;SDS011;74548;47.712;9.272;2024-03-23T09:45:17;1.00;;;0.40;;
84357;SDS011;74548;47.712;9.272;2024-03-23T09:47:46;0.40;;;0.40;;
84357;SDS011;74548;47.712;9.272;2024-03-23T09:50:12;1.13;;;0.50;;
84357;SDS011;74548;47.712;9.272;2024-03-23T09:52:38;1.00;;;0.50;;
84357;SDS011;74548;47.712;9.272;2024-03-23T09:55:04;0.75;;;0.50;;
84357;SDS011;74548;47.712;9.272;2024-03-23T09:57:29;1.27;;;0.40;;
84357;SDS011;74548;47.712;9.272;2024-03-23T09:59:55;1.50;;;0.33;;
84357;SDS011;74548;47.712;9.272;2024-03-23T10:02:21;0.25;;;0.20;;
84357;SDS011;74548;47.712;9.272;2024-03-23T10:04:47;0.75;;;0.50;;
84357;SDS011;74548;47.712;9.272;2024-03-23T10:07:14;1.80;;;0.47;;
84357;SDS011;74548;47.712;9.272;2024-03-23T10:09:42;0.80;;;0.40;;
84357;SDS011;74548;47.712;9.272;2024-03-23T10:12:11;0.80;;;0.45;;
84357;SDS011;74548;47.712;9.272;2024-03-23T10:14:38;1.80;;;0.50;;
84357;SDS011;74548;47.712;9.272;2024-03-23T10:17:15;1.58;;;0.40;;
84357;SDS011;74548;47.712;9.272;2024-03-23T10:19:50;0.88;;;0.45;;
84357;SDS011;74548;47.712;9.272;2024-03-23T10:22:18;1.55;;;0.50;;
84357;SDS011;74548;47.712;9.272;2024-03-23T10:24:44;0.40;;;0.30;;
84357;SDS011;74548;47.712;9.272;2024-03-23T10:27:15;1.48;;;0.52;;
84357;SDS011;74548;47.712;9.272;2024-03-23T10:29:42;0.68;;;0.45;;
84357;SDS011;74548;47.712;9.272;2024-03-23T10:32:09;1.05;;;0.50;;
84357;SDS011;74548;47.712;9.272;2024-03-23T10:34:37;1.70;;;0.70;;
84357;SDS011;74548;47.712;9.272;2024-03-23T10:37:04;0.80;;;0.50;;
84357;SDS011;74548;47.712;9.272;2024-03-23T10:39:32;0.77;;;0.63;;
84357;SDS011;74548;47.712;9.272;2024-03-23T10:44:26;1.48;;;0.60;;
84357;SDS011;74548;47.712;9.272;2024-03-23T10:46:54;2.58;;;0.70;;
84357;SDS011;74548;47.712;9.272;2024-03-23T10:49:31;0.38;;;0.30;;
84357;SDS011;74548;47.712;9.272;2024-03-23T10:51:58;0.60;;;0.40;;
84357;SDS011;74548;47.712;9.272;2024-03-23T10:54:25;1.15;;;0.68;;
84357;SDS011;74548;47.712;9.272;2024-03-23T10:56:53;1.33;;;0.40;;
84357;SDS011;74548;47.712;9.272;2024-03-23T10:59:41;0.85;;;0.38;;
84357;SDS011;74548;47.712;9.272;2024-03-23T11:02:07;1.30;;;0.60;;
84357;SDS011;74548;47.712;9.272;2024-03-23T11:09:51;2.10;;;0.50;;
84357;SDS011;74548;47.712;9.272;2024-03-23T11:14:48;1.10;;;0.30;;
84357;SDS011;74548;47.712;9.272;2024-03-23T11:17:22;2.53;;;0.57;;
84357;SDS011;74548;47.712;9.272;2024-03-23T11:22:37;1.23;;;0.63;;
84357;SDS011;74548;47.712;9.272;2024-03-23T11:25:12;1.90;;;0.50;;
84357;SDS011;74548;47.712;9.272;2024-03-23T11:27:47;1.88;;;0.60;;
84357;SDS011;74548;47.712;9.272;2024-03-23T11:32:56;2.33;;;0.80;;
84357;SDS011;74548;47.712;9.272;2024-03-23T11:40:26;1.08;;;0.55;;
84357;SDS011;74548;47.712;9.272;2024-03-23T11:43:01;0.90;;;0.60;;
84357;SDS011;74548;47.712;9.272;2024-03-23T11:45:28;0.55;;;0.40;;
84357;SDS011;74548;47.712;9.272;2024-03-23T11:48:07;2.40;;;0.70;;
84357;SDS011;74548;47.712;9.272;2024-03-23T11:50:42;1.33;;;0.60;;
84357;SDS011;74548;47.712;9.272;2024-03-23T11:53:12;1.85;;;0.70;;
84357;SDS011;74548;47.712;9.272;2024-03-23T11:55:53;1.65;;;0.57;;
84357;SDS011;74548;47.712;9.272;2024-03-23T11:58:21;2.47;;;0.90;;
84357;SDS011;74548;47.712;9.272;2024-03-23T12:00:52;1.85;;;0.50;;
84357;SDS011;74548;47.712;9.272;2024-03-23T12:03:21;2.13;;;0.60;;
84357;SDS011;74548;47.712;9.272;2024-03-23T12:05:50;3.55;;;0.70;;
84357;SDS011;74548;47.712;9.272;2024-03-23T12:08:24;3.58;;;1.33;;
84357;SDS011;74548;47.712;9.272;2024-03-23T12:11:08;4.95;;;1.00;;
84357;SDS011;74548;47.712;9.272;2024-03-23T12:13:35;2.92;;;0.70;;
84357;SDS011;74548;47.712;9.272;2024-03-23T12:16:16;2.45;;;0.80;;
84357;SDS011;74548;47.712;9.272;2024-03-23T12:18:44;3.03;;;0.90;;
84357;SDS011;74548;47.712;9.272;2024-03-23T12:21:11;2.33;;;1.00;;
84357;SDS011;74548;47.712;9.272;2024-03-23T12:23:40;2.27;;;0.80;;
84357;SDS011;74548;47.712;9.272;2024-03-23T12:26:07;3.92;;;0.88;;
84357;SDS011;74548;47.712;9.272;2024-03-23T12:28:32;4.95;;;0.93;;
84357;SDS011;74548;47.712;9.272;2024-03-23T12:30:58;3.58;;;1.20;;
84357;SDS011;74548;47.712;9.272;2024-03-23T12:33:24;3.22;;;1.20;;
84357;SDS011;74548;47.712;9.272;2024-03-23T12:35:49;3.28;;;0.80;;
84357;SDS011;74548;47.712;9.272;2024-03-23T12:38:15;6.75;;;1.10;;
84357;SDS011;74548;47.712;9.272;2024-03-23T12:40:41;3.70;;;1.10;;
84357;SDS011;74548;47.712;9.272;2024-03-23T12:43:07;4.15;;;1.40;;
84357;SDS011;74548;47.712;9.272;2024-03-23T12:45:35;4.93;;;1.00;;
84357;SDS011;74548;47.712;9.272;2024-03-23T12:48:00;3.10;;;0.93;;
84357;SDS011;74548;47.712;9.272;2024-03-23T12:50:25;2.70;;;0.87;;
84357;SDS011;74548;47.712;9.272;2024-03-23T12:52:51;1.77;;;0.70;;
84357;SDS011;74548;47.712;9.272;2024-03-23T12:57:38;2.67;;;0.80;;
84357;SDS011;74548;47.712;9.272;2024-03-23T13:00:05;3.58;;;0.90;;
84357;SDS011;74548;47.712;9.272;2024-03-23T13:02:31;2.58;;;0.90;;
84357;SDS011;74548;47.712;9.272;2024-03-23T13:04:57;2.80;;;0.82;;
84357;SDS011;74548;47.712;9.272;2024-03-23T13:07:23;1.17;;;0.55;;
84357;SDS011;74548;47.712;9.272;2024-03-23T13:09:52;2.95;;;1.00;;
84357;SDS011;74548;47.712;9.272;2024-03-23T13:12:21;3.53;;;0.90;;
84357;SDS011;74548;47.712;9.272;2024-03-23T13:14:46;2.35;;;0.60;;
84357;SDS011;74548;47.712;9.272;2024-03-23T13:17:12;3.25;;;0.68;;
84357;SDS011;74548;47.712;9.272;2024-03-23T13:19:38;3.50;;;0.90;;
84357;SDS011;74548;47.712;9.272;2024-03-23T13:22:03;2.25;;;0.80;;
84357;SDS011;74548;47.712;9.272;2024-03-23T13:24:29;2.75;;;0.77;;
84357;SDS011;74548;47.712;9.272;2024-03-23T13:26:55;2.08;;;0.65;;
84357;SDS011;74548;47.712;9.272;2024-03-23T13:29:20;2.80;;;0.60;;
84357;SDS011;74548;47.712;9.272;2024-03-23T13:31:47;3.53;;;0.57;;
84357;SDS011;74548;47.712;9.272;2024-03-23T13:34:13;1.35;;;0.47;;
84357;SDS011;74548;47.712;9.272;2024-03-23T13:36:42;1.33;;;0.50;;
84357;SDS011;74548;47.712;9.272;2024-03-23T13:39:08;1.48;;;0.50;;
84357;SDS011;74548;47.712;9.272;2024-03-23T13:41:39;2.47;;;0.63;;
84357;SDS011;74548;47.712;9.272;2024-03-23T13:44:06;1.90;;;0.60;;
84357;SDS011;74548;47.712;9.272;2024-03-23T13:46:32;1.67;;;0.57;;
84357;SDS011;74548;47.712;9.272;2024-03-23T13:48:58;3.17;;;0.60;;
84357;SDS011;74548;47.712;9.272;2024-03-23T13:51:24;1.98;;;0.80;;
84357;SDS011;74548;47.712;9.272;2024-03-23T13:53:55;2.45;;;1.25;;
84357;SDS011;74548;47.712;9.272;2024-03-23T13:56:24;2.95;;;0.80;;
84357;SDS011;74548;47.712;9.272;2024-03-23T13:58:49;1.17;;;0.60;;
84357;SDS011;74548;47.712;9.272;2024-03-23T14:03:31;1.63;;;0.63;;
84357;SDS011;74548;47.712;9.272;2024-03-23T14:05:59;2.87;;;0.80;;
84357;SDS011;74548;47.712;9.272;2024-03-23T14:08:26;2.97;;;0.70;;
84357;SDS011;74548;47.712;9.272;2024-03-23T14:10:52;3.20;;;0.85;;
84357;SDS011;74548;47.712;9.272;2024-03-23T14:13:19;3.88;;;0.88;;
84357;SDS011;74548;47.712;9.272;2024-03-23T14:15:45;3.53;;;0.73;;
84357;SDS011;74548;47.712;9.272;2024-03-23T14:18:10;1.23;;;0.50;;
84357;SDS011;74548;47.712;9.272;2024-03-23T14:20:41;1.70;;;0.80;;
84357;SDS011;74548;47.712;9.272;2024-03-23T14:23:06;1.20;;;0.60;;
84357;SDS011;74548;47.712;9.272;2024-03-23T14:27:49;3.35;;;0.77;;
84357;SDS011;74548;47.712;9.272;2024-03-23T14:30:15;3.00;;;0.97;;
84357;SDS011;74548;47.712;9.272;2024-03-23T14:32:40;4.57;;;1.35;;
84357;SDS011;74548;47.712;9.272;2024-03-23T14:35:06;4.65;;;0.80;;
84357;SDS011;74548;47.712;9.272;2024-03-23T14:37:33;2.90;;;0.93;;
84357;SDS011;74548;47.712;9.272;2024-03-23T14:39:59;3.40;;;0.97;;
84357;SDS011;74548;47.712;9.272;2024-03-23T14:42:24;2.65;;;1.17;;
84357;SDS011;74548;47.712;9.272;2024-03-23T14:44:50;3.75;;;0.90;;
84357;SDS011;74548;47.712;9.272;2024-03-23T14:47:16;2.92;;;0.70;;
84357;SDS011;74548;47.712;9.272;2024-03-23T14:49:42;5.35;;;0.85;;
84357;SDS011;74548;47.712;9.272;2024-03-23T14:52:12;2.55;;;0.90;;
84357;SDS011;74548;47.712;9.272;2024-03-23T14:54:40;2.28;;;0.82;;
84357;SDS011;74548;47.712;9.272;2024-03-23T14:57:06;3.47;;;0.77;;
84357;SDS011;74548;47.712;9.272;2024-03-23T14:59:34;2.05;;;1.02;;
84357;SDS011;74548;47.712;9.272;2024-03-23T15:02:00;2.67;;;0.80;;
84357;SDS011;74548;47.712;9.272;2024-03-23T15:04:26;4.10;;;0.90;;
84357;SDS011;74548;47.712;9.272;2024-03-23T15:06:51;2.30;;;0.70;;
84357;SDS011;74548;47.712;9.272;2024-03-23T15:09:16;1.53;;;0.90;;
84357;SDS011;74548;47.712;9.272;2024-03-23T15:11:42;4.38;;;1.10;;
84357;SDS011;74548;47.712;9.272;2024-03-23T15:14:07;3.10;;;0.90;;
84357;SDS011;74548;47.712;9.272;2024-03-23T15:16:33;3.60;;;1.08;;
84357;SDS011;74548;47.712;9.272;2024-03-23T15:18:58;3.25;;;0.80;;
84357;SDS011;74548;47.712;9.272;2024-03-23T15:21:24;3.35;;;0.68;;
84357;SDS011;74548;47.712;9.272;2024-03-23T15:26:08;3.10;;;0.88;;
84357;SDS011;74548;47.712;9.272;2024-03-23T15:30:49;2.15;;;0.50;;
84357;SDS011;74548;47.712;9.272;2024-03-23T15:33:14;6.35;;;0.82;;
84357;SDS011;74548;47.712;9.272;2024-03-23T15:35:40;1.30;;;0.75;;
84357;SDS011;74548;47.712;9.272;2024-03-23T15:38:05;1.25;;;0.70;;
84357;SDS011;74548;47.712;9.272;2024-03-23T15:40:31;3.72;;;0.93;;
84357;SDS011;74548;47.712;9.272;2024-03-23T15:42:56;2.07;;;0.90;;
84357;SDS011;74548;47.712;9.272;2024-03-23T15:45:21;1.47;;;0.57;;
84357;SDS011;74548;47.712;9.272;2024-03-23T15:47:47;4.90;;;1.17;;
84357;SDS011;74548;47.712;9.272;2024-03-23T15:52:40;3.67;;;0.90;;
84357;SDS011;74548;47.712;9.272;2024-03-23T15:55:05;5.30;;;0.95;;
84357;SDS011;74548;47.712;9.272;2024-03-23T15:57:32;2.67;;;0.77;;
84357;SDS011;74548;47.712;9.272;2024-03-23T16:02:10;2.00;;;0.55;;
84357;SDS011;74548;47.712;9.272;2024-03-23T16:04:36;3.50;;;0.70;;
84357;SDS011;74548;47.712;9.272;2024-03-23T16:07:01;3.23;;;1.07;;
84357;SDS011;74548;47.712;9.272;2024-03-23T16:09:26;1.98;;;0.63;;
84357;SDS011;74548;47.712;9.272;2024-03-23T16:11:53;1.38;;;0.60;;
84357;SDS011;74548;47.712;9.272;2024-03-23T16:14:19;3.58;;;0.80;;
84357;SDS011;74548;47.712;9.272;2024-03-23T16:16:44;3.03;;;0.85;;
84357;SDS011;74548;47.712;9.272;2024-03-23T16:19:09;2.93;;;0.83;;
84357;SDS011;74548;47.712;9.272;2024-03-23T16:21:36;3.40;;;0.95;;
84357;SDS011;74548;47.712;9.272;2024-03-23T16:24:02;1.93;;;0.73;;
84357;SDS011;74548;47.712;9.272;2024-03-23T16:26:27;2.72;;;0.70;;
84357;SDS011;74548;47.712;9.272;2024-03-23T16:28:52;3.50;;;0.80;;
84357;SDS011;74548;47.712;9.272;2024-03-23T16:33:31;2.60;;;1.00;;
84357;SDS011;74548;47.712;9.272;2024-03-23T16:38:26;1.15;;;0.68;;
84357;SDS011;74548;47.712;9.272;2024-03-23T16:40:56;1.98;;;0.70;;
84357;SDS011;74548;47.712;9.272;2024-03-23T16:43:26;1.45;;;0.65;;
84357;SDS011;74548;47.712;9.272;2024-03-23T16:45:52;3.70;;;0.80;;
84357;SDS011;74548;47.712;9.272;2024-03-23T16:48:18;2.13;;;1.00;;
84357;SDS011;74548;47.712;9.272;2024-03-23T16:50:43;2.88;;;0.68;;
84357;SDS011;74548;47.712;9.272;2024-03-23T16:53:08;3.42;;;1.02;;